KDIK/DIK METAR and TAF weather

Enter ICAO airport designator
Station Type Date Time Source
KDIK METAR 2021/03/08 11:56 UTC NOAA

KDIK 081156Z AUTO 18010KT 10SM BKN080 01/M06 A3007 RMK AO2 SLP195 T00111061 10011 21039 55004


Station Type Date Time Source
KDIK Decoded METAR 2021/03/08 11:56 UTC NOAA

THEODORE ROOSEVELT REGIONAL, ND, United States (KDIK) 46-48N 102-48W 788M
Mar 08, 2021 - 06:56 AM EST / 2021.03.08 1156 UTC
Wind: from the S (180 degrees) at 12 MPH (10 KT):0
Visibility: 10 mile(s):0
Sky conditions: mostly cloudy
Temperature: 34.0 F (1.1 C)
Windchill: 24 F (-4 C):1
Dew Point: 21.0 F (-6.1 C)
Relative Humidity: 58%
Pressure (altimeter): 30.07 in. Hg (1018 hPa)
Pressure tendency: 0.01 inches (0.4 hPa) lower than three hours ago
ob: KDIK 081156Z AUTO 18010KT 10SM BKN080 01/M06 A3007 RMK AO2 SLP195 T00111061 10011 21039 55004
cycle: 12

Station Type Date Time Source
KDIK TAF 2021/03/08 12:34 UTC NOAA

TAF KDIK 081132Z 0812/0912 17007KT P6SM FEW090
FM081600 16012G23KT P6SM BKN200
FM090100 14007KT P6SM SCT250

Example: see airport list